createdAt,value
2022-09-15T00:00:31.872Z,12.00
2022-09-15T00:03:33.852Z,11.98
2022-09-15T00:06:35.607Z,11.98
2022-09-15T00:09:37.511Z,11.96
2022-09-15T00:12:39.084Z,11.98
2022-09-15T00:15:42.703Z,12.01
2022-09-15T00:18:45.154Z,12.00
2022-09-15T00:21:46.739Z,11.98
2022-09-15T00:24:49.547Z,12.01
2022-09-15T00:27:51.333Z,12.01
2022-09-15T00:30:54.896Z,12.02
2022-09-15T00:33:58.265Z,12.03
2022-09-15T00:37:00.193Z,12.04
2022-09-15T00:40:01.938Z,12.04
2022-09-15T00:43:03.771Z,12.00
2022-09-15T00:46:08.627Z,11.97
2022-09-15T00:49:13.578Z,11.94
2022-09-15T00:52:17.319Z,11.95
2022-09-15T00:55:21.144Z,11.91
2022-09-15T00:58:24.614Z,11.88
2022-09-15T01:01:28.472Z,11.86
2022-09-15T01:04:30.304Z,11.87
2022-09-15T01:07:33.320Z,11.88
2022-09-15T01:10:35.632Z,11.90
2022-09-15T01:13:37.687Z,11.89
2022-09-15T01:16:46.111Z,11.85
2022-09-15T01:20:05.693Z,11.85
2022-09-15T01:23:25.900Z,11.82
2022-09-15T01:26:48.558Z,11.80
2022-09-15T01:30:08.161Z,11.77
2022-09-15T01:33:14.786Z,11.79
2022-09-15T01:36:20.325Z,11.77
2022-09-15T01:39:25.043Z,11.73
2022-09-15T01:42:27.324Z,11.72
2022-09-15T01:45:33.045Z,11.75
2022-09-15T01:48:36.217Z,11.83
2022-09-15T01:51:39.023Z,11.82
2022-09-15T01:54:45.995Z,11.84
2022-09-15T01:57:47.970Z,11.89
2022-09-15T02:00:53.995Z,11.92
2022-09-15T02:03:58.492Z,11.92
2022-09-15T02:07:03.154Z,11.87
2022-09-15T02:10:11.414Z,11.87
2022-09-15T02:13:18.286Z,11.87
2022-09-15T02:16:22.800Z,11.90
2022-09-15T02:19:31.444Z,11.93
2022-09-15T02:22:35.647Z,11.93
2022-09-15T02:25:38.825Z,11.92
2022-09-15T02:28:41.820Z,11.89
2022-09-15T02:31:45.793Z,11.90
2022-09-15T02:34:49.022Z,11.87
2022-09-15T02:37:51.513Z,11.89
2022-09-15T02:40:53.160Z,11.89
2022-09-15T02:43:54.635Z,11.89
2022-09-15T02:46:59.002Z,11.90
2022-09-15T02:50:00.591Z,11.86
2022-09-15T02:53:02.706Z,11.86
2022-09-15T02:56:06.614Z,11.89
2022-09-15T02:59:08.647Z,11.85
2022-09-15T03:02:12.799Z,11.83
2022-09-15T03:05:15.046Z,11.85
2022-09-15T03:08:16.655Z,11.83
2022-09-15T03:11:19.490Z,11.83
2022-09-15T03:14:21.784Z,11.81
2022-09-15T03:17:25.466Z,11.80
2022-09-15T03:20:30.499Z,11.79
2022-09-15T03:23:32.223Z,11.76
2022-09-15T03:26:33.878Z,11.78
2022-09-15T03:29:35.871Z,11.79
2022-09-15T03:32:39.063Z,11.74
2022-09-15T03:35:40.859Z,11.72
2022-09-15T03:38:42.575Z,11.72
2022-09-15T03:41:46.101Z,11.75
2022-09-15T03:44:47.873Z,11.72
2022-09-15T03:47:53.901Z,11.73
2022-09-15T03:50:55.791Z,11.78
2022-09-15T03:53:57.580Z,11.74
2022-09-15T03:56:59.122Z,11.72
2022-09-15T04:00:01.057Z,11.68
2022-09-15T04:03:04.588Z,11.69
2022-09-15T04:06:06.575Z,11.66
2022-09-15T04:09:08.780Z,11.61
2022-09-15T04:12:11.260Z,11.62
2022-09-15T04:15:13.127Z,11.65
2022-09-15T04:18:16.341Z,11.61
2022-09-15T04:21:19.346Z,11.59
2022-09-15T04:24:21.327Z,11.57
2022-09-15T04:27:23.240Z,11.56
2022-09-15T04:30:26.233Z,11.60
2022-09-15T04:33:29.655Z,11.69
2022-09-15T04:36:34.539Z,11.63
2022-09-15T04:39:36.364Z,11.60
2022-09-15T04:42:37.917Z,11.62
2022-09-15T04:45:39.898Z,11.64
2022-09-15T04:48:43.011Z,11.60
2022-09-15T04:51:44.716Z,11.60
2022-09-15T04:54:46.349Z,11.60
2022-09-15T04:57:48.037Z,11.65
2022-09-15T05:00:49.865Z,11.60
2022-09-15T05:03:53.196Z,11.63
2022-09-15T05:06:54.764Z,11.66
2022-09-15T05:09:56.458Z,11.64
2022-09-15T05:12:58.045Z,11.69
2022-09-15T05:16:03.789Z,11.67
2022-09-15T05:19:07.118Z,11.65
2022-09-15T05:22:11.441Z,11.61
2022-09-15T05:25:13.198Z,11.66
2022-09-15T05:28:15.135Z,11.67
2022-09-15T05:31:19.016Z,11.68
2022-09-15T05:34:22.194Z,11.69
2022-09-15T05:37:26.443Z,11.70
2022-09-15T05:40:27.974Z,11.77
2022-09-15T05:43:30.785Z,11.74
2022-09-15T05:46:32.396Z,11.79
2022-09-15T05:49:37.185Z,11.80
2022-09-15T05:52:39.070Z,11.78
2022-09-15T05:55:40.938Z,11.78
2022-09-15T05:58:47.936Z,11.81
2022-09-15T06:01:49.490Z,11.82
2022-09-15T06:04:52.426Z,11.89
2022-09-15T06:07:54.802Z,11.85
2022-09-15T06:11:00.874Z,11.85
2022-09-15T06:14:03.443Z,11.90
2022-09-15T06:17:05.077Z,11.93
2022-09-15T06:20:10.251Z,11.96
2022-09-15T06:23:11.997Z,11.99
2022-09-15T06:26:14.249Z,12.05
2022-09-15T06:29:16.315Z,12.08
2022-09-15T06:32:17.947Z,12.09
2022-09-15T06:35:21.070Z,12.08
2022-09-15T06:38:22.975Z,12.11
2022-09-15T06:41:25.140Z,12.09
2022-09-15T06:44:26.826Z,12.08
2022-09-15T06:47:33.952Z,12.07
2022-09-15T06:50:37.202Z,12.09
2022-09-15T06:53:39.461Z,12.06
2022-09-15T06:56:41.025Z,12.07
2022-09-15T06:59:42.814Z,12.08
2022-09-15T07:02:46.553Z,12.05
2022-09-15T07:05:49.728Z,12.08
2022-09-15T07:08:51.478Z,12.14
2022-09-15T07:11:53.333Z,12.16
2022-09-15T07:14:55.205Z,12.15
2022-09-15T07:17:57.028Z,12.17
2022-09-15T07:21:01.044Z,12.14
2022-09-15T07:24:07.005Z,12.14
2022-09-15T07:27:09.705Z,12.14
2022-09-15T07:30:12.085Z,12.15
2022-09-15T07:33:13.754Z,12.18
2022-09-15T07:36:17.223Z,12.23
2022-09-15T07:39:19.483Z,12.25
2022-09-15T07:42:21.017Z,12.24
2022-09-15T07:45:22.653Z,12.25
2022-09-15T07:48:30.661Z,12.28
2022-09-15T07:51:33.949Z,12.32
2022-09-15T07:54:35.725Z,12.41
2022-09-15T07:57:37.425Z,12.41
2022-09-15T08:00:39.296Z,12.41
2022-09-15T08:03:42.333Z,12.42
2022-09-15T08:06:45.351Z,12.41
2022-09-15T08:09:47.181Z,12.41
2022-09-15T08:12:49.198Z,12.47
2022-09-15T08:15:51.020Z,12.51
2022-09-15T08:18:53.810Z,12.57
2022-09-15T08:21:57.541Z,12.55
2022-09-15T08:24:59.000Z,12.56
2022-09-15T08:28:01.025Z,12.65
2022-09-15T08:31:04.119Z,12.70
2022-09-15T08:34:07.092Z,12.68
2022-09-15T08:37:10.314Z,12.66
2022-09-15T08:40:19.051Z,12.72
2022-09-15T08:43:22.582Z,12.82
2022-09-15T08:46:27.109Z,12.89
2022-09-15T08:49:50.522Z,12.86
2022-09-15T08:52:58.633Z,12.94
2022-09-15T08:56:06.234Z,12.96
2022-09-15T08:59:13.246Z,13.00
2022-09-15T09:02:34.049Z,13.05
2022-09-15T09:05:45.668Z,13.04
2022-09-15T09:09:05.244Z,13.07
2022-09-15T09:12:14.495Z,13.15
2022-09-15T09:15:21.429Z,13.15
2022-09-15T09:18:35.465Z,13.24
2022-09-15T09:21:39.328Z,13.26
2022-09-15T09:24:43.343Z,13.19
2022-09-15T09:27:45.506Z,13.24
2022-09-15T09:30:48.334Z,13.28
2022-09-15T09:33:51.567Z,13.31
2022-09-15T09:36:54.846Z,13.39
2022-09-15T09:39:57.954Z,13.43
2022-09-15T09:43:00.237Z,13.54
2022-09-15T09:46:02.807Z,13.49
2022-09-15T09:49:05.355Z,13.51
2022-09-15T09:52:06.953Z,13.48
2022-09-15T09:55:22.121Z,13.42
2022-09-15T09:58:25.356Z,13.44
2022-09-15T10:01:27.211Z,13.56
2022-09-15T10:04:29.656Z,13.60
2022-09-15T10:07:32.898Z,13.66
2022-09-15T10:10:36.207Z,13.80
2022-09-15T10:13:50.568Z,13.89
2022-09-15T10:17:02.622Z,13.88
2022-09-15T10:20:05.674Z,13.96
2022-09-15T10:23:23.228Z,14.13
2022-09-15T10:26:32.279Z,14.10
2022-09-15T10:29:38.564Z,13.99
2022-09-15T10:32:41.053Z,13.90
2022-09-15T10:35:42.853Z,13.92
2022-09-15T10:38:46.031Z,13.89
2022-09-15T10:41:52.027Z,13.88
2022-09-15T10:44:58.744Z,13.86
2022-09-15T10:48:18.357Z,13.86
2022-09-15T10:51:30.560Z,13.95
2022-09-15T10:54:53.467Z,14.06
2022-09-15T10:58:02.418Z,14.19
2022-09-15T11:01:11.062Z,14.19
2022-09-15T11:04:28.834Z,14.16
2022-09-15T11:07:33.914Z,14.14
2022-09-15T11:10:39.827Z,14.19
2022-09-15T11:13:47.262Z,14.17
2022-09-15T11:16:54.013Z,14.13
2022-09-15T11:20:14.262Z,14.20
2022-09-15T11:23:18.847Z,14.43
2022-09-15T11:26:24.180Z,14.63
2022-09-15T11:29:34.011Z,14.75
2022-09-15T11:32:39.307Z,14.84
2022-09-15T11:35:45.198Z,14.74
2022-09-15T11:38:49.419Z,14.68
2022-09-15T11:41:56.716Z,14.64
2022-09-15T11:45:00.934Z,14.66
2022-09-15T11:48:08.090Z,14.72
2022-09-15T11:51:12.585Z,14.82
2022-09-15T11:54:21.374Z,14.85
2022-09-15T11:57:25.494Z,15.05
2022-09-15T12:00:28.528Z,15.28
2022-09-15T12:03:35.298Z,15.26
2022-09-15T12:06:45.995Z,15.13
2022-09-15T12:09:48.308Z,14.98
2022-09-15T12:12:51.870Z,14.87
2022-09-15T12:15:57.520Z,14.82
2022-09-15T12:19:02.009Z,14.83
2022-09-15T12:22:07.260Z,14.85
2022-09-15T12:25:12.986Z,14.85
2022-09-15T12:28:37.737Z,14.79
2022-09-15T12:31:40.928Z,14.76
2022-09-15T12:34:54.635Z,14.78
2022-09-15T12:37:57.744Z,14.86
2022-09-15T12:40:59.628Z,14.94
2022-09-15T12:44:04.085Z,15.02
2022-09-15T12:47:18.117Z,15.07
2022-09-15T12:50:25.524Z,15.11
2022-09-15T12:53:29.328Z,15.20
2022-09-15T12:56:32.393Z,15.20
2022-09-15T12:59:34.605Z,15.20
2022-09-15T13:02:45.083Z,15.22
2022-09-15T13:05:51.559Z,15.27
2022-09-15T13:08:55.766Z,15.25
2022-09-15T13:11:58.294Z,15.19
2022-09-15T13:15:01.792Z,15.11
2022-09-15T13:18:06.670Z,15.03
2022-09-15T13:21:12.926Z,15.00
2022-09-15T13:24:16.253Z,14.97
2022-09-15T13:27:19.842Z,15.00
2022-09-15T13:30:31.099Z,15.06
2022-09-15T13:41:22.693Z,15.58
2022-09-15T13:44:39.292Z,15.79
2022-09-15T13:47:48.169Z,15.68
2022-09-15T13:50:56.364Z,15.54
2022-09-15T13:54:00.142Z,15.41
2022-09-15T13:57:02.074Z,15.29
2022-09-15T14:00:09.747Z,15.21
2022-09-15T14:03:17.547Z,15.15
2022-09-15T14:06:23.133Z,15.10
2022-09-15T14:09:26.858Z,15.04
2022-09-15T14:12:29.066Z,15.00
2022-09-15T14:15:32.163Z,14.92
2022-09-15T14:18:41.303Z,14.92
2022-09-15T14:21:53.810Z,14.88
2022-09-15T14:24:58.593Z,14.86
2022-09-15T14:28:00.683Z,14.84
2022-09-15T14:31:02.881Z,14.77
2022-09-15T14:34:07.331Z,14.74
2022-09-15T14:37:19.027Z,14.69
2022-09-15T14:40:24.171Z,14.70
2022-09-15T14:43:27.310Z,14.71
2022-09-15T14:46:36.422Z,14.74
2022-09-15T14:49:38.107Z,14.72
2022-09-15T14:52:45.408Z,14.70
2022-09-15T14:55:50.871Z,14.69
2022-09-15T14:58:54.529Z,14.69
2022-09-15T15:02:03.395Z,14.65
2022-09-15T15:05:08.876Z,14.67
2022-09-15T15:08:20.611Z,14.67
2022-09-15T15:11:22.888Z,14.65
2022-09-15T15:14:25.077Z,14.65
2022-09-15T15:17:36.818Z,14.64
2022-09-15T15:20:48.456Z,14.65
2022-09-15T15:24:02.422Z,14.63
2022-09-15T15:27:20.224Z,14.64
2022-09-15T15:30:29.569Z,14.57
2022-09-15T15:33:31.836Z,14.54
2022-09-15T15:36:34.839Z,14.53
2022-09-15T15:39:38.223Z,14.50
2022-09-15T15:42:50.950Z,14.46
2022-09-15T15:46:01.244Z,14.41
2022-09-15T15:49:03.438Z,14.38
2022-09-15T15:52:06.380Z,14.36
2022-09-15T15:55:13.055Z,14.32
2022-09-15T15:58:15.483Z,14.32
2022-09-15T16:01:17.266Z,14.29
2022-09-15T16:04:19.558Z,14.26
2022-09-15T16:07:22.740Z,14.23
2022-09-15T16:10:28.200Z,14.19
2022-09-15T16:13:30.183Z,14.17
2022-09-15T16:16:32.472Z,14.14
2022-09-15T16:19:34.682Z,14.13
2022-09-15T16:22:36.662Z,14.18
2022-09-15T16:25:41.909Z,14.23
2022-09-15T16:28:46.361Z,14.31
2022-09-15T16:31:48.269Z,14.24
2022-09-15T16:34:55.063Z,14.19
2022-09-15T16:37:56.638Z,14.12
2022-09-15T16:41:00.443Z,14.08
2022-09-15T16:44:02.689Z,14.03
2022-09-15T16:47:06.348Z,13.99
2022-09-15T16:50:09.538Z,14.00
2022-09-15T16:53:13.705Z,14.00
2022-09-15T16:56:16.889Z,14.01
2022-09-15T16:59:18.601Z,13.97
2022-09-15T17:02:21.618Z,13.95
2022-09-15T17:05:25.840Z,13.91
2022-09-15T17:08:31.434Z,13.91
2022-09-15T17:11:34.459Z,13.90
2022-09-15T17:14:36.041Z,13.85
2022-09-15T17:17:37.895Z,13.82
2022-09-15T17:20:39.541Z,13.82
2022-09-15T17:23:43.086Z,13.80
2022-09-15T17:26:46.102Z,13.73
2022-09-15T17:29:47.881Z,13.66
2022-09-15T17:32:49.973Z,13.57
2022-09-15T17:35:54.456Z,13.48
2022-09-15T17:38:56.085Z,13.42
2022-09-15T17:41:58.922Z,13.39
2022-09-15T17:45:00.538Z,13.38
2022-09-15T17:48:03.095Z,13.33
2022-09-15T17:51:05.016Z,13.30
2022-09-15T17:54:08.738Z,13.29
2022-09-15T17:57:12.021Z,13.26
2022-09-15T18:00:14.590Z,13.25
2022-09-15T18:03:19.184Z,13.22
2022-09-15T18:26:00.088Z,12.95
2022-09-15T19:05:33.839Z,12.68
2022-09-15T19:08:40.373Z,12.69
2022-09-15T19:14:52.138Z,12.63
2022-09-15T19:21:12.195Z,12.57
2022-09-15T19:30:49.709Z,12.53
2022-09-15T19:40:27.242Z,12.50
2022-09-15T19:43:28.866Z,12.45
2022-09-15T19:46:31.900Z,12.47
2022-09-15T19:49:33.627Z,12.47
2022-09-15T19:52:35.113Z,12.46
2022-09-15T19:55:36.527Z,12.48
2022-09-15T20:01:56.091Z,12.36
2022-09-15T20:04:57.675Z,12.26
2022-09-15T20:08:00.882Z,12.18
2022-09-15T20:11:05.053Z,12.16
2022-09-15T20:14:06.720Z,12.15
2022-09-15T20:17:09.808Z,12.12
2022-09-15T20:20:11.978Z,12.16
2022-09-15T20:23:14.003Z,12.17
2022-09-15T20:26:16.323Z,12.15
2022-09-15T20:29:18.209Z,12.14
2022-09-15T20:32:23.873Z,12.14
2022-09-15T20:35:29.703Z,12.12
2022-09-15T20:38:32.030Z,12.15
2022-09-15T20:41:33.619Z,12.15
2022-09-15T20:44:35.152Z,12.13
2022-09-15T20:47:37.982Z,12.12
2022-09-15T20:50:39.418Z,12.08
2022-09-15T20:53:41.492Z,12.07
2022-09-15T20:56:43.063Z,12.04
2022-09-15T20:59:44.570Z,12.03
2022-09-15T21:02:54.949Z,12.03
2022-09-15T21:05:58.747Z,12.01
2022-09-15T21:09:00.441Z,11.99
2022-09-15T21:12:02.475Z,12.01
2022-09-15T21:15:04.390Z,11.98
2022-09-15T21:18:07.481Z,12.02
2022-09-15T21:21:09.939Z,12.04
2022-09-15T21:24:11.474Z,12.02
2022-09-15T21:27:28.861Z,12.03
2022-09-15T21:30:30.334Z,12.00
2022-09-15T21:33:33.787Z,11.99
2022-09-15T21:36:35.910Z,11.98
2022-09-15T21:39:37.416Z,11.97
2022-09-15T21:42:39.310Z,11.90
2022-09-15T21:45:40.801Z,11.90
2022-09-15T21:48:44.388Z,11.84
2022-09-15T21:51:46.202Z,11.81
2022-09-15T21:54:47.872Z,11.80
2022-09-15T21:57:49.742Z,11.78
2022-09-15T22:00:51.305Z,11.76
2022-09-15T22:03:57.186Z,11.77
2022-09-15T22:06:58.702Z,11.73
2022-09-15T22:10:00.188Z,11.73
2022-09-15T22:13:01.730Z,11.68
2022-09-15T22:16:04.286Z,11.64
2022-09-15T22:19:07.935Z,11.57
2022-09-15T22:22:09.556Z,11.51
2022-09-15T22:25:11.080Z,11.46
2022-09-15T22:28:12.740Z,11.43
2022-09-15T22:31:16.262Z,11.39
2022-09-15T22:34:19.397Z,11.42
2022-09-15T22:37:20.969Z,11.43
2022-09-15T22:40:22.539Z,11.41
2022-09-15T22:43:24.198Z,11.37
2022-09-15T22:46:26.024Z,11.38
2022-09-15T22:49:29.136Z,11.40
2022-09-15T22:52:30.591Z,11.36
2022-09-15T22:55:32.162Z,11.33
2022-09-15T22:58:34.246Z,11.29
2022-09-15T23:01:36.349Z,11.27
2022-09-15T23:04:39.250Z,11.24
2022-09-15T23:07:41.123Z,11.21
2022-09-15T23:10:42.655Z,11.18
2022-09-15T23:13:44.348Z,11.13
2022-09-15T23:16:45.992Z,11.08
2022-09-15T23:19:48.886Z,11.04
2022-09-15T23:22:51.976Z,11.00
2022-09-15T23:25:53.546Z,11.00
2022-09-15T23:28:55.398Z,11.00
2022-09-15T23:31:57.530Z,11.00
2022-09-15T23:35:00.400Z,10.97
2022-09-15T23:38:02.182Z,10.96
2022-09-15T23:41:03.867Z,10.98
2022-09-15T23:44:06.446Z,10.99
2022-09-15T23:47:07.894Z,10.97
2022-09-15T23:50:11.176Z,10.93
2022-09-15T23:53:12.947Z,10.88
2022-09-15T23:56:14.338Z,10.88
2022-09-15T23:59:15.790Z,10.86
